Time;durP1;ratioP1;P1;durP2;ratioP2;P2;SDS_P1;SDS_P2;PMS_P1;PMS_P2;Temp;Humidity;BMP_temperature;BMP_pressure;BME280_temperature;BME280_humidity;BME280_pressure;Samples;Min_cycle;Max_cycle;Signal;HPM_P1;HPM_P2
2022/10/17 00:01:10;0.00;0.00;0.62;0.00;0.00;0.62;1.50;0.90;;;30.20;27.20;;;;;;2269199;61;20394;-64
2022/10/17 00:03:54;0.00;0.00;0.62;0.00;0.00;0.62;1.50;0.90;;;30.20;27.30;;;;;;2269835;61;20407;-64
2022/10/17 00:06:39;0.00;0.00;0.62;0.00;0.00;0.62;1.70;1.20;;;30.20;27.20;;;;;;2268981;61;20391;-63
2022/10/17 00:09:25;0.00;0.00;0.62;0.00;0.00;0.62;1.50;1.10;;;30.20;27.30;;;;;;2269703;61;20364;-64
2022/10/17 00:12:13;0.00;0.00;0.62;0.00;0.00;0.62;1.87;1.27;;;30.20;27.20;;;;;;2269116;61;20715;-64
2022/10/17 00:14:58;0.00;0.00;0.62;0.00;0.00;0.62;1.40;0.90;;;30.20;27.30;;;;;;2269260;61;20491;-64
2022/10/17 00:17:42;0.00;0.00;0.62;0.00;0.00;0.62;1.50;0.93;;;30.20;27.20;;;;;;2269462;61;20367;-63
2022/10/17 00:20:29;0.00;0.00;0.62;0.00;0.00;0.62;1.73;1.13;;;30.20;27.20;;;;;;2269764;61;20363;-64
2022/10/17 00:23:14;0.00;0.00;0.62;0.00;0.00;0.62;2.07;1.27;;;30.10;27.20;;;;;;2269257;61;20627;-64
2022/10/17 00:26:00;0.00;0.00;0.62;0.00;0.00;0.62;1.67;1.20;;;30.10;27.20;;;;;;2269599;61;20561;-65
2022/10/17 00:28:48;0.00;0.00;0.62;0.00;0.00;0.62;2.17;1.10;;;30.10;27.20;;;;;;2269588;61;20372;-64
2022/10/17 00:31:32;0.00;0.00;0.62;0.00;0.00;0.62;1.70;1.00;;;30.10;27.20;;;;;;2269530;61;20571;-64
2022/10/17 00:34:17;0.00;0.00;0.62;0.00;0.00;0.62;1.87;1.20;;;30.10;27.20;;;;;;2269119;61;20379;-66
2022/10/17 00:37:02;0.00;0.00;0.62;0.00;0.00;0.62;1.90;1.50;;;30.10;27.20;;;;;;2269424;61;20391;-64
2022/10/17 00:39:47;0.00;0.00;0.62;0.00;0.00;0.62;1.40;0.90;;;30.00;27.20;;;;;;2269774;61;20359;-64
2022/10/17 00:42:31;0.00;0.00;0.62;0.00;0.00;0.62;1.80;1.00;;;30.00;27.20;;;;;;2268911;61;20692;-64
2022/10/17 00:45:24;0.00;0.00;0.62;0.00;0.00;0.62;2.90;1.20;;;30.00;27.20;;;;;;2268878;61;20598;-64
2022/10/17 00:48:10;0.00;0.00;0.62;0.00;0.00;0.62;1.60;1.10;;;30.00;27.70;;;;;;2269259;61;20390;-65
2022/10/17 00:50:55;0.00;0.00;0.62;0.00;0.00;0.62;1.57;1.00;;;30.00;27.20;;;;;;2269032;61;20360;-64
2022/10/17 00:53:41;0.00;0.00;0.62;0.00;0.00;0.62;1.60;1.17;;;29.90;27.70;;;;;;2269459;61;20403;-64
2022/10/17 00:56:26;0.00;0.00;0.62;0.00;0.00;0.62;1.60;1.20;;;30.00;27.20;;;;;;2269676;61;20735;-64
2022/10/17 00:59:14;0.00;0.00;0.62;0.00;0.00;0.62;1.53;1.20;;;29.90;27.20;;;;;;2269312;61;20566;-65
2022/10/17 01:02:04;0.00;0.00;0.62;0.00;0.00;0.62;2.63;1.13;;;29.90;27.20;;;;;;2269594;61;20391;-65
2022/10/17 01:04:53;0.00;0.00;0.62;0.00;0.00;0.62;1.90;1.23;;;29.90;27.20;;;;;;2269025;61;20368;-64
2022/10/17 01:07:40;0.00;0.00;0.62;0.00;0.00;0.62;2.60;0.97;;;29.80;27.20;;;;;;2269059;61;20360;-64
2022/10/17 01:10:31;0.00;0.00;0.62;0.00;0.00;0.62;2.07;1.33;;;29.80;27.20;;;;;;2269758;61;20678;-65
2022/10/17 01:13:24;0.00;0.00;0.62;0.00;0.00;0.62;1.70;1.20;;;29.80;27.20;;;;;;2268824;61;20360;-65
2022/10/17 01:16:16;0.00;0.00;0.62;0.00;0.00;0.62;2.00;1.00;;;29.80;27.30;;;;;;2269602;61;20379;-66
2022/10/17 01:19:29;0.00;0.00;0.62;0.00;0.00;0.62;1.70;1.30;;;29.80;27.30;;;;;;2269188;61;20360;-66
2022/10/17 01:22:22;0.00;0.00;0.62;0.00;0.00;0.62;2.00;1.20;;;29.70;27.20;;;;;;2268789;61;20627;-64
2022/10/17 01:25:27;0.00;0.00;0.62;0.00;0.00;0.62;1.90;1.23;;;29.70;27.20;;;;;;2269431;61;20805;-64
2022/10/17 01:28:29;0.00;0.00;0.62;0.00;0.00;0.62;1.60;1.30;;;29.70;27.20;;;;;;2269269;61;20356;-66
2022/10/17 01:31:18;0.00;0.00;0.62;0.00;0.00;0.62;1.70;1.30;;;29.70;27.80;;;;;;2272483;61;20370;-65
2022/10/17 01:34:11;0.00;0.00;0.62;0.00;0.00;0.62;1.80;1.30;;;29.60;27.20;;;;;;2273344;61;20441;-64
2022/10/17 01:37:01;0.00;0.00;0.62;0.00;0.00;0.62;1.77;1.00;;;29.60;27.20;;;;;;2272575;61;20368;-64
2022/10/17 01:39:51;0.00;0.00;0.62;0.00;0.00;0.62;2.00;1.50;;;29.60;27.20;;;;;;2273813;61;20359;-64
2022/10/17 01:42:45;0.00;0.00;0.62;0.00;0.00;0.62;1.70;1.10;;;29.60;27.20;;;;;;2272782;61;20734;-64
2022/10/17 01:45:36;0.00;0.00;0.62;0.00;0.00;0.62;1.80;1.20;;;29.60;27.30;;;;;;2273540;61;20466;-64
2022/10/17 01:48:29;0.00;0.00;0.62;0.00;0.00;0.62;2.60;1.30;;;29.50;27.30;;;;;;2273322;61;20375;-64
2022/10/17 01:51:19;0.00;0.00;0.62;0.00;0.00;0.62;1.90;1.33;;;29.50;27.30;;;;;;2273268;61;20372;-64
2022/10/17 01:54:11;0.00;0.00;0.62;0.00;0.00;0.62;1.77;1.20;;;29.50;27.30;;;;;;2273212;61;20411;-64
2022/10/17 01:57:03;0.00;0.00;0.62;0.00;0.00;0.62;1.70;1.30;;;29.50;27.30;;;;;;2273011;61;20457;-64
2022/10/17 01:59:51;0.00;0.00;0.62;0.00;0.00;0.62;1.97;1.20;;;29.50;27.40;;;;;;2273385;61;20687;-64
2022/10/17 02:02:42;0.00;0.00;0.62;0.00;0.00;0.62;2.80;1.20;;;29.40;27.40;;;;;;2274117;61;20460;-65
2022/10/17 02:05:36;0.00;0.00;0.62;0.00;0.00;0.62;2.60;1.60;;;29.40;27.40;;;;;;2270647;61;20723;-64
2022/10/17 02:08:26;0.00;0.00;0.62;0.00;0.00;0.62;1.70;1.20;;;29.40;27.40;;;;;;2273718;61;20360;-64
2022/10/17 02:11:15;0.00;0.00;0.62;0.00;0.00;0.62;1.80;1.50;;;29.30;27.40;;;;;;2273786;61;20363;-64
2022/10/17 02:14:24;0.00;0.00;0.62;0.00;0.00;0.62;2.67;1.23;;;29.30;27.40;;;;;;2273207;61;20410;-65
2022/10/17 02:17:23;0.00;0.00;0.62;0.00;0.00;0.62;1.67;1.10;;;29.30;27.50;;;;;;2273828;61;20711;-65
2022/10/17 02:20:19;0.00;0.00;0.62;0.00;0.00;0.62;1.70;1.10;;;29.30;27.50;;;;;;2273853;61;20466;-65
2022/10/17 02:23:15;0.00;0.00;0.62;0.00;0.00;0.62;2.00;1.40;;;29.30;27.50;;;;;;2273539;61;20387;-65
2022/10/17 02:26:08;0.00;0.00;0.62;0.00;0.00;0.62;2.03;1.33;;;29.20;27.50;;;;;;2273739;61;20352;-65
2022/10/17 02:29:05;0.00;0.00;0.62;0.00;0.00;0.62;2.83;1.23;;;29.20;27.60;;;;;;2273634;61;20359;-65
2022/10/17 02:31:57;0.00;0.00;0.62;0.00;0.00;0.62;1.60;1.13;;;29.20;27.60;;;;;;2269897;61;20360;-66
2022/10/17 02:34:45;0.00;0.00;0.62;0.00;0.00;0.62;1.50;0.90;;;29.20;27.60;;;;;;2269682;61;20391;-65
2022/10/17 02:37:32;0.00;0.00;0.62;0.00;0.00;0.62;1.90;1.23;;;29.10;27.60;;;;;;2269472;61;20361;-65
2022/10/17 02:40:22;0.00;0.00;0.62;0.00;0.00;0.62;1.73;1.20;;;29.10;27.70;;;;;;2269667;61;20391;-65
2022/10/17 02:43:09;0.00;0.00;0.62;0.00;0.00;0.62;1.90;1.23;;;29.10;27.70;;;;;;2269283;61;20360;-64
2022/10/17 02:45:55;0.00;0.00;0.62;0.00;0.00;0.62;1.80;1.33;;;29.10;27.70;;;;;;2270247;61;20357;-64
2022/10/17 02:48:46;0.00;0.00;0.62;0.00;0.00;0.62;1.60;1.10;;;29.10;27.70;;;;;;2269504;61;20424;-64
2022/10/17 02:51:41;0.00;0.00;0.62;0.00;0.00;0.62;1.60;1.17;;;29.00;27.70;;;;;;2269716;61;20778;-64
2022/10/17 02:54:33;0.00;0.00;0.62;0.00;0.00;0.62;1.70;1.40;;;29.00;27.70;;;;;;2269556;61;20395;-64
2022/10/17 02:57:27;0.00;0.00;0.62;0.00;0.00;0.62;1.77;1.30;;;29.00;27.70;;;;;;2269371;61;20359;-64
2022/10/17 03:00:14;0.00;0.00;0.62;0.00;0.00;0.62;2.20;1.60;;;29.00;27.80;;;;;;2269481;61;20349;-65
2022/10/17 03:02:59;0.00;0.00;0.62;0.00;0.00;0.62;1.90;1.37;;;29.00;27.80;;;;;;2272161;61;20394;-64
2022/10/17 03:05:44;0.00;0.00;0.62;0.00;0.00;0.62;1.80;1.30;;;29.00;27.80;;;;;;2269497;61;20774;-64
2022/10/17 03:08:29;0.00;0.00;0.62;0.00;0.00;0.62;2.20;1.50;;;29.00;27.80;;;;;;2270001;61;20360;-65
2022/10/17 03:11:14;0.00;0.00;0.62;0.00;0.00;0.62;1.80;1.13;;;28.90;27.70;;;;;;2269398;61;20455;-65
2022/10/17 03:14:01;0.00;0.00;0.62;0.00;0.00;0.62;1.80;1.13;;;28.90;27.70;;;;;;2268991;61;20380;-65
2022/10/17 03:16:46;0.00;0.00;0.62;0.00;0.00;0.62;2.60;1.87;;;28.90;27.80;;;;;;2269655;61;20352;-65
2022/10/17 03:19:33;0.00;0.00;0.62;0.00;0.00;0.62;2.30;1.40;;;28.90;27.80;;;;;;2269360;61;20402;-64
2022/10/17 03:22:17;0.00;0.00;0.62;0.00;0.00;0.62;3.00;1.37;;;28.90;27.80;;;;;;2270053;61;20561;-65
2022/10/17 03:25:05;0.00;0.00;0.62;0.00;0.00;0.62;1.90;1.57;;;28.90;27.90;;;;;;2272135;61;20367;-65
2022/10/17 03:27:53;0.00;0.00;0.62;0.00;0.00;0.62;1.83;1.30;;;28.80;27.90;;;;;;2269148;61;20365;-65
2022/10/17 03:30:39;0.00;0.00;0.62;0.00;0.00;0.62;2.60;1.47;;;28.80;27.90;;;;;;2269581;61;20371;-65
2022/10/17 03:33:25;0.00;0.00;0.62;0.00;0.00;0.62;2.07;1.50;;;28.80;27.90;;;;;;2269218;61;20631;-64
2022/10/17 03:36:12;0.00;0.00;0.62;0.00;0.00;0.62;1.87;1.40;;;28.70;27.90;;;;;;2269057;61;20411;-63
2022/10/17 03:38:57;0.00;0.00;0.62;0.00;0.00;0.62;1.93;1.23;;;28.80;28.00;;;;;;2272396;61;20763;-65
2022/10/17 03:41:42;0.00;0.00;0.62;0.00;0.00;0.62;1.87;1.30;;;28.70;27.90;;;;;;2269537;61;20352;-65
2022/10/17 03:44:27;0.00;0.00;0.62;0.00;0.00;0.62;2.83;1.40;;;28.70;27.90;;;;;;2266545;61;20422;-64
2022/10/17 03:47:13;0.00;0.00;0.62;0.00;0.00;0.62;2.50;1.63;;;28.70;28.00;;;;;;2269451;61;20360;-65
2022/10/17 03:49:58;0.00;0.00;0.62;0.00;0.00;0.62;1.70;1.30;;;28.70;28.00;;;;;;2269050;61;20580;-65
2022/10/17 03:52:46;0.00;0.00;0.62;0.00;0.00;0.62;1.73;1.53;;;28.70;28.10;;;;;;2269567;61;20402;-64
2022/10/17 03:55:31;0.00;0.00;0.62;0.00;0.00;0.62;1.70;1.20;;;28.60;28.10;;;;;;2269185;61;20387;-65
2022/10/17 03:58:16;0.00;0.00;0.62;0.00;0.00;0.62;1.90;1.50;;;28.60;28.10;;;;;;2268952;61;20680;-65
2022/10/17 04:01:03;0.00;0.00;0.62;0.00;0.00;0.62;2.27;1.43;;;28.60;28.10;;;;;;2269995;61;20353;-66
2022/10/17 04:03:51;0.00;0.00;0.62;0.00;0.00;0.62;2.17;1.40;;;28.60;28.10;;;;;;2269366;61;20439;-64
2022/10/17 04:06:37;0.00;0.00;0.62;0.00;0.00;0.62;2.27;1.50;;;28.60;28.10;;;;;;2269235;61;20359;-64
2022/10/17 04:09:22;0.00;0.00;0.62;0.00;0.00;0.62;2.63;1.50;;;28.50;28.20;;;;;;2269211;61;20406;-65
2022/10/17 04:12:18;0.00;0.00;0.62;0.00;0.00;0.62;2.17;1.47;;;28.50;28.20;;;;;;2268961;61;20700;-65
2022/10/17 04:15:04;0.00;0.00;0.62;0.00;0.00;0.62;2.33;1.80;;;28.50;28.20;;;;;;2269224;61;20430;-64
2022/10/17 04:17:48;0.00;0.00;0.62;0.00;0.00;0.62;2.00;1.30;;;28.50;28.20;;;;;;2269353;61;20435;-64
2022/10/17 04:20:35;0.00;0.00;0.62;0.00;0.00;0.62;2.27;1.40;;;28.50;28.20;;;;;;2268958;61;20414;-64
2022/10/17 04:23:21;0.00;0.00;0.62;0.00;0.00;0.62;2.03;1.47;;;28.50;28.30;;;;;;2269630;61;20398;-64
2022/10/17 04:26:08;0.00;0.00;0.62;0.00;0.00;0.62;2.00;1.30;;;28.50;28.30;;;;;;2269132;61;20372;-64
2022/10/17 04:28:53;0.00;0.00;0.62;0.00;0.00;0.62;2.00;1.40;;;28.50;28.30;;;;;;2269541;61;20452;-64
2022/10/17 04:31:38;0.00;0.00;0.62;0.00;0.00;0.62;1.57;1.40;;;28.50;28.30;;;;;;2269245;61;20371;-64
2022/10/17 04:34:34;0.00;0.00;0.62;0.00;0.00;0.62;2.50;1.60;;;28.50;28.40;;;;;;2268653;61;20618;-64
2022/10/17 04:37:20;0.00;0.00;0.62;0.00;0.00;0.62;1.70;1.40;;;28.40;28.30;;;;;;2269459;61;20368;-64
2022/10/17 04:40:09;0.00;0.00;0.62;0.00;0.00;0.62;1.97;1.53;;;28.40;28.80;;;;;;2269094;61;20435;-65
2022/10/17 04:42:54;0.00;0.00;0.62;0.00;0.00;0.62;1.60;1.30;;;28.40;28.50;;;;;;2268928;61;20372;-64
2022/10/17 04:45:44;0.00;0.00;0.62;0.00;0.00;0.62;2.03;1.80;;;28.40;28.30;;;;;;2269516;61;20418;-64
2022/10/17 04:48:30;0.00;0.00;0.62;0.00;0.00;0.62;1.90;1.37;;;28.40;28.40;;;;;;2268915;61;20387;-65
2022/10/17 04:51:17;0.00;0.00;0.62;0.00;0.00;0.62;1.80;1.60;;;28.40;28.40;;;;;;2269559;61;20455;-64
2022/10/17 04:54:23;0.00;0.00;0.62;0.00;0.00;0.62;3.17;1.87;;;28.40;28.40;;;;;;2268893;61;20513;-64
2022/10/17 04:57:15;0.00;0.00;0.62;0.00;0.00;0.62;1.80;1.63;;;28.30;28.40;;;;;;2268792;61;20723;-64
2022/10/17 05:00:10;0.00;0.00;0.62;0.00;0.00;0.62;2.03;1.80;;;28.30;28.50;;;;;;2266876;61;20403;-65
2022/10/17 05:03:18;0.00;0.00;0.62;0.00;0.00;0.62;2.53;1.53;;;28.30;28.50;;;;;;2269024;61;20452;-65
2022/10/17 05:06:04;0.00;0.00;0.62;0.00;0.00;0.62;3.40;1.80;;;28.30;28.50;;;;;;2269488;61;20364;-66
2022/10/17 05:08:50;0.00;0.00;0.62;0.00;0.00;0.62;1.90;1.60;;;28.30;28.60;;;;;;2268948;61;20363;-69
2022/10/17 05:11:38;0.00;0.00;0.62;0.00;0.00;0.62;2.10;1.60;;;28.30;28.60;;;;;;2271399;61;20356;-62
2022/10/17 05:14:23;0.00;0.00;0.62;0.00;0.00;0.62;2.63;1.67;;;28.20;28.60;;;;;;2269240;61;20379;-62
2022/10/17 05:17:08;0.00;0.00;0.62;0.00;0.00;0.62;2.40;1.40;;;28.20;28.60;;;;;;2268828;61;20356;-61
2022/10/17 05:19:53;0.00;0.00;0.62;0.00;0.00;0.62;2.13;1.53;;;28.20;28.70;;;;;;2268760;61;20404;-61
2022/10/17 05:22:38;0.00;0.00;0.62;0.00;0.00;0.62;2.00;1.80;;;28.20;28.70;;;;;;2269025;61;20388;-63
2022/10/17 05:25:24;0.00;0.00;0.62;0.00;0.00;0.62;1.90;1.60;;;28.10;28.60;;;;;;2265841;61;20408;-63
2022/10/17 05:28:10;0.00;0.00;0.62;0.00;0.00;0.62;2.30;1.80;;;28.10;28.70;;;;;;2269455;61;20379;-64
2022/10/17 05:31:00;0.00;0.00;0.62;0.00;0.00;0.62;1.90;1.47;;;28.10;28.70;;;;;;2266026;61;20471;-62
2022/10/17 05:33:45;0.00;0.00;0.62;0.00;0.00;0.62;1.93;1.73;;;28.10;28.80;;;;;;2269111;61;20399;-63
2022/10/17 05:36:31;0.00;0.00;0.62;0.00;0.00;0.62;2.50;1.93;;;28.10;28.80;;;;;;2269421;61;20379;-61
2022/10/17 05:39:18;0.00;0.00;0.62;0.00;0.00;0.62;2.87;2.10;;;28.10;28.90;;;;;;2269534;61;20402;-63
2022/10/17 05:42:06;0.00;0.00;0.62;0.00;0.00;0.62;2.00;1.80;;;28.10;28.90;;;;;;2269362;61;20712;-65
2022/10/17 05:44:53;0.00;0.00;0.62;0.00;0.00;0.62;3.60;2.10;;;28.10;28.90;;;;;;2269688;61;20449;-62
2022/10/17 05:47:38;0.00;0.00;0.62;0.00;0.00;0.62;2.07;1.53;;;28.10;28.90;;;;;;2269725;61;20368;-65
2022/10/17 05:50:24;0.00;0.00;0.62;0.00;0.00;0.62;2.10;1.50;;;28.10;28.90;;;;;;2268866;61;20502;-62
2022/10/17 05:53:28;0.00;0.00;0.62;0.00;0.00;0.62;2.20;1.50;;;28.10;28.90;;;;;;2269234;61;20360;-62
2022/10/17 05:56:14;0.00;0.00;0.62;0.00;0.00;0.62;2.00;1.60;;;28.10;28.90;;;;;;2268955;61;20379;-63
2022/10/17 05:59:00;0.00;0.00;0.62;0.00;0.00;0.62;2.30;1.87;;;28.10;29.00;;;;;;2270230;61;20600;-63
2022/10/17 06:02:06;0.00;0.00;0.62;0.00;0.00;0.62;3.10;1.57;;;28.10;29.00;;;;;;2269173;61;20360;-64
2022/10/17 06:04:51;0.00;0.00;0.62;0.00;0.00;0.62;2.77;1.80;;;28.10;29.00;;;;;;2266646;61;20392;-62
2022/10/17 06:07:38;0.00;0.00;0.62;0.00;0.00;0.62;2.00;1.67;;;28.10;28.90;;;;;;2266151;58;20360;-62
2022/10/17 06:10:24;0.00;0.00;0.62;0.00;0.00;0.62;2.27;1.63;;;28.10;29.00;;;;;;2264839;61;20611;-61
2022/10/17 06:13:09;0.00;0.00;0.62;0.00;0.00;0.62;2.10;1.80;;;28.10;29.00;;;;;;2266127;61;20360;-62
2022/10/17 06:15:54;0.00;0.00;0.62;0.00;0.00;0.62;1.80;1.40;;;28.00;29.00;;;;;;2265346;61;20384;-64
2022/10/17 06:18:41;0.00;0.00;0.62;0.00;0.00;0.62;2.30;1.80;;;28.00;29.00;;;;;;2265062;61;20399;-61
2022/10/17 06:21:27;0.00;0.00;0.62;0.00;0.00;0.62;2.47;1.90;;;28.00;29.10;;;;;;2265624;61;20423;-60
2022/10/17 06:24:21;0.00;0.00;0.62;0.00;0.00;0.62;3.07;1.97;;;28.00;29.20;;;;;;2264874;61;20381;-61
2022/10/17 06:27:06;0.00;0.00;0.62;0.00;0.00;0.62;2.13;1.53;;;28.00;29.20;;;;;;2265373;61;20356;-64
2022/10/17 06:29:51;0.00;0.00;0.62;0.00;0.00;0.62;1.93;1.67;;;28.00;29.20;;;;;;2264933;61;20373;-62
2022/10/17 06:32:37;0.00;0.00;0.62;0.00;0.00;0.62;2.50;1.77;;;28.00;29.30;;;;;;2263776;61;20591;-61
2022/10/17 06:35:24;0.00;0.00;0.62;0.00;0.00;0.62;2.43;1.77;;;28.00;29.30;;;;;;2682119;45;20433;-61
2022/10/17 06:38:09;0.00;0.00;0.62;0.00;0.00;0.62;2.03;1.57;;;28.00;29.30;;;;;;2263756;61;20376;-63
2022/10/17 06:41:02;0.00;0.00;0.62;0.00;0.00;0.62;2.63;1.67;;;28.00;29.30;;;;;;2263084;61;20381;-60
2022/10/17 06:43:47;0.00;0.00;0.62;0.00;0.00;0.62;2.33;1.57;;;28.00;29.30;;;;;;2608587;45;20385;-61
2022/10/17 06:46:52;0.00;0.00;0.62;0.00;0.00;0.62;1.83;1.53;;;28.00;29.30;;;;;;2268079;58;20392;-64
2022/10/17 06:49:39;0.00;0.00;0.62;0.00;0.00;0.62;4.70;1.87;;;28.00;29.40;;;;;;2264056;61;20389;-63
2022/10/17 06:52:57;0.00;0.00;0.62;0.00;0.00;0.62;1.90;1.70;;;28.00;29.50;;;;;;2261830;61;20436;-62
2022/10/17 06:56:03;0.00;0.00;0.62;0.00;0.00;0.62;2.30;1.90;;;28.00;29.60;;;;;;2264982;61;20389;-64
2022/10/17 06:59:08;0.00;0.00;0.62;0.00;0.00;0.62;3.33;1.77;;;27.90;29.50;;;;;;2265986;61;20629;-62
2022/10/17 07:01:54;0.00;0.00;0.62;0.00;0.00;0.62;2.00;1.73;;;27.90;29.50;;;;;;2265082;61;20369;-62
2022/10/17 07:04:41;0.00;0.00;0.62;0.00;0.00;0.62;2.20;1.70;;;27.90;29.50;;;;;;2265356;61;20404;-62
2022/10/17 07:07:29;0.00;0.00;0.62;0.00;0.00;0.62;2.70;2.33;;;27.90;29.60;;;;;;2265927;61;20361;-62
2022/10/17 07:10:15;0.00;0.00;0.62;0.00;0.00;0.62;2.10;1.80;;;27.90;29.60;;;;;;2264806;61;20357;-61
2022/10/17 07:13:00;0.00;0.00;0.62;0.00;0.00;0.62;2.30;1.80;;;27.90;29.50;;;;;;2265970;61;20473;-61
2022/10/17 07:15:46;0.00;0.00;0.62;0.00;0.00;0.62;2.37;1.90;;;27.90;29.50;;;;;;2565275;45;20390;-62
2022/10/17 07:18:31;0.00;0.00;0.62;0.00;0.00;0.62;2.80;1.80;;;27.90;29.60;;;;;;2264790;61;20415;-63
2022/10/17 07:21:17;0.00;0.00;0.62;0.00;0.00;0.62;2.47;1.60;;;27.90;29.70;;;;;;2261873;61;20727;-60
2022/10/17 07:24:02;0.00;0.00;0.62;0.00;0.00;0.62;2.13;1.70;;;27.90;29.60;;;;;;2261186;61;20440;-60
2022/10/17 07:26:49;0.00;0.00;0.62;0.00;0.00;0.62;1.80;1.43;;;27.90;29.60;;;;;;2258431;61;20362;-62
2022/10/17 07:29:35;0.00;0.00;0.62;0.00;0.00;0.62;2.50;1.90;;;27.90;29.60;;;;;;2261790;61;20361;-63
2022/10/17 07:32:27;0.00;0.00;0.62;0.00;0.00;0.62;2.03;1.80;;;28.00;29.70;;;;;;2259093;61;20365;-62
2022/10/17 07:35:13;0.00;0.00;0.62;0.00;0.00;0.62;2.90;1.80;;;28.00;29.70;;;;;;2261737;61;20381;-60
2022/10/17 07:37:59;0.00;0.00;0.62;0.00;0.00;0.62;2.67;2.07;;;28.00;29.70;;;;;;2260683;61;20437;-66
2022/10/17 07:40:45;0.00;0.00;0.62;0.00;0.00;0.62;2.10;1.80;;;28.00;29.80;;;;;;2261168;61;20432;-64
2022/10/17 07:43:32;0.00;0.00;0.62;0.00;0.00;0.62;2.80;2.07;;;28.00;29.90;;;;;;2260915;61;20504;-63
2022/10/17 07:46:19;0.00;0.00;0.62;0.00;0.00;0.62;2.03;1.83;;;28.00;30.00;;;;;;2260969;61;20362;-63
2022/10/17 07:49:04;0.00;0.00;0.62;0.00;0.00;0.62;6.23;2.40;;;28.00;30.00;;;;;;2261291;61;20408;-63
2022/10/17 07:51:49;0.00;0.00;0.62;0.00;0.00;0.62;2.83;2.00;;;28.00;30.00;;;;;;2260950;61;20748;-63
2022/10/17 07:54:35;0.00;0.00;0.62;0.00;0.00;0.62;2.90;1.90;;;28.00;30.00;;;;;;2260864;61;20401;-63
2022/10/17 07:57:20;0.00;0.00;0.62;0.00;0.00;0.62;2.80;2.07;;;28.00;30.00;;;;;;2261747;61;20569;-65
2022/10/17 08:00:08;0.00;0.00;0.62;0.00;0.00;0.62;2.00;1.80;;;28.00;30.10;;;;;;2261164;61;20373;-63
2022/10/17 08:02:57;0.00;0.00;0.62;0.00;0.00;0.62;2.00;1.80;;;28.00;30.10;;;;;;2261480;61;20592;-64
2022/10/17 08:05:42;0.00;0.00;0.62;0.00;0.00;0.62;3.17;2.13;;;28.00;30.00;;;;;;2260809;61;20420;-65
2022/10/17 08:08:27;0.00;0.00;0.62;0.00;0.00;0.62;2.10;1.87;;;28.10;30.10;;;;;;2261063;61;20362;-63
2022/10/17 08:11:14;0.00;0.00;0.62;0.00;0.00;0.62;3.83;2.10;;;28.00;30.00;;;;;;2261665;61;20397;-61
2022/10/17 08:13:59;0.00;0.00;0.62;0.00;0.00;0.62;2.37;1.93;;;28.10;30.20;;;;;;2260854;61;20382;-60
2022/10/17 08:16:46;0.00;0.00;0.62;0.00;0.00;0.62;2.60;2.17;;;28.10;30.20;;;;;;2260671;61;20439;-62
2022/10/17 08:19:31;0.00;0.00;0.62;0.00;0.00;0.62;2.53;2.17;;;28.10;30.20;;;;;;2261456;61;20440;-62
2022/10/17 08:22:16;0.00;0.00;0.62;0.00;0.00;0.62;2.67;2.00;;;28.10;30.30;;;;;;2261033;61;20392;-65
2022/10/17 08:25:00;0.00;0.00;0.62;0.00;0.00;0.62;2.37;2.17;;;28.10;30.20;;;;;;2260989;61;20386;-60
2022/10/17 08:27:46;0.00;0.00;0.62;0.00;0.00;0.62;2.80;2.10;;;28.10;30.30;;;;;;2261167;61;20442;-65
2022/10/17 08:30:31;0.00;0.00;0.62;0.00;0.00;0.62;2.87;2.10;;;28.20;30.40;;;;;;2261070;61;20373;-64
2022/10/17 08:33:17;0.00;0.00;0.62;0.00;0.00;0.62;2.33;2.03;;;28.20;30.40;;;;;;2260851;61;20365;-67
2022/10/17 08:36:03;0.00;0.00;0.62;0.00;0.00;0.62;2.37;1.83;;;28.20;30.40;;;;;;2260748;61;20649;-66
2022/10/17 08:38:48;0.00;0.00;0.62;0.00;0.00;0.62;1.97;1.63;;;28.20;30.40;;;;;;2260987;61;20366;-64
2022/10/17 08:41:52;0.00;0.00;0.62;0.00;0.00;0.62;3.10;2.33;;;28.20;30.30;;;;;;2261440;61;20381;-67
2022/10/17 08:44:48;0.00;0.00;0.62;0.00;0.00;0.62;2.20;1.83;;;28.20;30.30;;;;;;2261065;61;20376;-65
2022/10/17 08:47:37;0.00;0.00;0.62;0.00;0.00;0.62;3.50;2.33;;;28.30;30.30;;;;;;2261260;61;20397;-67
2022/10/17 08:50:30;0.00;0.00;0.62;0.00;0.00;0.62;2.70;2.20;;;28.30;30.30;;;;;;2260858;61;20457;-65
2022/10/17 08:53:20;0.00;0.00;0.62;0.00;0.00;0.62;3.07;2.20;;;28.30;30.30;;;;;;2261188;61;20574;-64
2022/10/17 08:56:15;0.00;0.00;0.62;0.00;0.00;0.62;3.77;2.20;;;28.30;30.20;;;;;;2261263;61;20374;-62
2022/10/17 08:58:59;0.00;0.00;0.62;0.00;0.00;0.62;2.10;1.90;;;28.40;30.30;;;;;;2261010;61;20358;-62
2022/10/17 09:01:53;0.00;0.00;0.62;0.00;0.00;0.62;3.37;2.00;;;28.40;30.30;;;;;;2260793;61;20382;-62
2022/10/17 09:04:53;0.00;0.00;0.62;0.00;0.00;0.62;2.40;2.13;;;28.40;30.30;;;;;;2260913;61;20454;-67
2022/10/17 09:07:48;0.00;0.00;0.62;0.00;0.00;0.62;2.57;1.83;;;28.40;30.20;;;;;;2261003;61;20434;-68
2022/10/17 09:10:48;0.00;0.00;0.62;0.00;0.00;0.62;3.13;2.13;;;28.50;30.30;;;;;;2262129;61;20444;-66
2022/10/17 09:13:48;0.00;0.00;0.62;0.00;0.00;0.62;2.47;2.00;;;28.50;30.30;;;;;;2261637;61;20389;-65
2022/10/17 09:16:58;0.00;0.00;0.62;0.00;0.00;0.62;2.40;2.00;;;28.50;30.20;;;;;;2261391;61;20428;-63
2022/10/17 09:19:52;0.00;0.00;0.62;0.00;0.00;0.62;2.70;2.37;;;28.50;30.30;;;;;;2261264;61;20370;-64
2022/10/17 09:22:46;0.00;0.00;0.62;0.00;0.00;0.62;3.10;2.03;;;28.50;30.30;;;;;;2261798;61;20449;-64
2022/10/17 09:25:41;0.00;0.00;0.62;0.00;0.00;0.62;3.00;2.40;;;28.50;30.40;;;;;;2262015;61;20377;-63
2022/10/17 09:28:31;0.00;0.00;0.62;0.00;0.00;0.62;2.53;2.07;;;28.50;30.40;;;;;;2261795;61;20347;-63
2022/10/17 09:31:22;0.00;0.00;0.62;0.00;0.00;0.62;2.47;2.27;;;28.60;30.40;;;;;;2261416;61;20373;-64
2022/10/17 09:34:09;0.00;0.00;0.62;0.00;0.00;0.62;3.13;2.60;;;28.60;30.40;;;;;;2261843;61;20377;-64
2022/10/17 09:36:57;0.00;0.00;0.62;0.00;0.00;0.62;3.07;2.20;;;28.50;30.40;;;;;;2261815;61;20389;-63
2022/10/17 09:39:44;0.00;0.00;0.62;0.00;0.00;0.62;3.03;2.20;;;28.60;30.60;;;;;;2261688;61;20357;-63
2022/10/17 09:42:29;0.00;0.00;0.62;0.00;0.00;0.62;2.90;2.27;;;28.60;30.60;;;;;;2261675;61;20377;-65
2022/10/17 09:45:18;0.00;0.00;0.62;0.00;0.00;0.62;2.67;2.27;;;28.60;30.60;;;;;;2261319;61;20676;-65
2022/10/17 09:48:13;0.00;0.00;0.62;0.00;0.00;0.62;9.90;2.50;;;28.60;30.50;;;;;;2262182;61;20412;-65
2022/10/17 09:50:59;0.00;0.00;0.62;0.00;0.00;0.62;3.50;2.57;;;28.70;30.60;;;;;;2261725;61;20358;-64
2022/10/17 09:53:50;0.00;0.00;0.62;0.00;0.00;0.62;2.53;2.33;;;28.60;30.40;;;;;;2261295;61;20366;-63
2022/10/17 09:57:00;0.00;0.00;0.62;0.00;0.00;0.62;3.30;2.20;;;28.70;30.50;;;;;;2261865;61;20382;-67
2022/10/17 09:59:54;0.00;0.00;0.62;0.00;0.00;0.62;3.20;2.00;;;28.70;30.40;;;;;;2261554;61;20400;-62
2022/10/17 10:02:39;0.00;0.00;0.62;0.00;0.00;0.62;3.40;2.13;;;28.80;30.50;;;;;;2262020;61;20381;-64
2022/10/17 10:05:24;0.00;0.00;0.62;0.00;0.00;0.62;3.20;2.00;;;28.80;30.50;;;;;;2261605;61;20413;-67
2022/10/17 10:08:15;0.00;0.00;0.62;0.00;0.00;0.62;2.70;2.30;;;28.80;30.40;;;;;;2261634;61;20426;-68
2022/10/17 10:11:03;0.00;0.00;0.62;0.00;0.00;0.62;2.50;1.93;;;28.80;30.40;;;;;;2261861;61;20366;-63
2022/10/17 10:13:50;0.00;0.00;0.62;0.00;0.00;0.62;2.13;1.87;;;28.80;30.40;;;;;;2261152;61;20405;-63
2022/10/17 10:16:41;0.00;0.00;0.62;0.00;0.00;0.62;2.20;1.93;;;28.80;30.50;;;;;;2261135;61;20517;-64
2022/10/17 10:19:30;0.00;0.00;0.62;0.00;0.00;0.62;2.13;1.93;;;28.90;30.60;;;;;;2261512;61;20950;-63
2022/10/17 10:22:17;0.00;0.00;0.62;0.00;0.00;0.62;4.07;1.90;;;28.90;30.60;;;;;;2261261;61;20362;-62
2022/10/17 10:25:15;0.00;0.00;0.62;0.00;0.00;0.62;3.03;2.17;;;28.90;30.50;;;;;;2262201;61;20378;-64
2022/10/17 10:28:00;0.00;0.00;0.62;0.00;0.00;0.62;2.60;2.00;;;28.90;30.50;;;;;;2261323;61;20357;-63
2022/10/17 10:30:51;0.00;0.00;0.62;0.00;0.00;0.62;2.30;2.10;;;29.00;30.50;;;;;;2261455;61;20717;-65
2022/10/17 10:33:41;0.00;0.00;0.62;0.00;0.00;0.62;2.13;1.93;;;29.00;30.50;;;;;;2261807;61;20429;-64
2022/10/17 10:36:50;0.00;0.00;0.62;0.00;0.00;0.62;2.60;2.30;;;29.00;30.50;;;;;;2261322;61;20417;-62
2022/10/17 10:39:46;0.00;0.00;0.62;0.00;0.00;0.62;3.10;2.00;;;29.00;30.60;;;;;;2262275;61;20765;-64
2022/10/17 10:42:36;0.00;0.00;0.62;0.00;0.00;0.62;3.23;2.13;;;29.10;30.50;;;;;;2261189;61;20718;-65
2022/10/17 10:45:24;0.00;0.00;0.62;0.00;0.00;0.62;2.50;2.30;;;29.00;30.40;;;;;;2261394;61;20456;-63
2022/10/17 10:48:22;0.00;0.00;0.62;0.00;0.00;0.62;2.67;2.30;;;29.10;30.40;;;;;;2261870;61;20354;-63
2022/10/17 10:51:12;0.00;0.00;0.62;0.00;0.00;0.62;2.57;2.37;;;29.10;30.40;;;;;;2261511;61;20358;-62
2022/10/17 10:54:05;0.00;0.00;0.62;0.00;0.00;0.62;2.40;2.20;;;29.10;30.30;;;;;;2261668;61;20485;-63
2022/10/17 10:56:53;0.00;0.00;0.62;0.00;0.00;0.62;2.93;2.47;;;29.20;30.30;;;;;;2261307;61;20373;-63
2022/10/17 10:59:48;0.00;0.00;0.62;0.00;0.00;0.62;2.70;2.00;;;29.20;30.20;;;;;;2261326;61;20354;-63
2022/10/17 11:02:39;0.00;0.00;0.62;0.00;0.00;0.62;2.23;2.03;;;29.20;30.20;;;;;;2261837;61;20571;-62
2022/10/17 11:05:39;0.00;0.00;0.62;0.00;0.00;0.62;2.40;2.20;;;29.20;30.10;;;;;;2261354;61;20445;-62
2022/10/17 11:08:37;0.00;0.00;0.62;0.00;0.00;0.62;2.40;2.00;;;29.20;30.00;;;;;;2261407;61;20817;-63